createdAt,value
2023-05-15T00:02:16.988Z,9.50
2023-05-15T00:06:39.225Z,9.50
2023-05-15T00:11:02.291Z,9.50
2023-05-15T00:15:24.548Z,9.60
2023-05-15T00:19:46.478Z,9.60
2023-05-15T00:24:08.597Z,9.60
2023-05-15T00:28:30.659Z,9.60
2023-05-15T00:32:52.661Z,9.60
2023-05-15T00:37:14.968Z,9.60
2023-05-15T00:41:38.041Z,9.50
2023-05-15T00:46:01.119Z,9.50
2023-05-15T00:50:23.882Z,9.40
2023-05-15T00:54:45.878Z,9.30
2023-05-15T00:59:08.424Z,9.30
2023-05-15T01:03:31.525Z,9.30
2023-05-15T01:08:32.660Z,9.20
2023-05-15T01:12:55.989Z,9.10
2023-05-15T01:17:18.136Z,8.90
2023-05-15T01:22:15.899Z,8.70
2023-05-15T01:27:34.598Z,8.60
2023-05-15T01:32:17.837Z,8.30
2023-05-15T01:36:49.468Z,8.10
2023-05-15T01:41:46.117Z,7.90
2023-05-15T01:46:08.329Z,7.80
2023-05-15T01:50:32.802Z,7.70
2023-05-15T01:54:55.956Z,7.60
2023-05-15T01:59:20.633Z,7.60
2023-05-15T02:03:43.777Z,7.60
2023-05-15T02:08:07.817Z,7.70
2023-05-15T02:12:30.562Z,7.70
2023-05-15T02:16:52.877Z,7.70
2023-05-15T02:21:16.020Z,7.60
2023-05-15T02:26:13.731Z,7.50
2023-05-15T02:30:40.843Z,7.50
2023-05-15T02:35:40.494Z,7.40
2023-05-15T02:40:07.740Z,7.30
2023-05-15T02:44:31.021Z,7.20
2023-05-15T02:48:54.153Z,7.20
2023-05-15T02:53:16.369Z,7.20
2023-05-15T02:57:38.498Z,7.20
2023-05-15T03:02:00.620Z,7.20
2023-05-15T03:06:22.634Z,7.10
2023-05-15T03:10:44.671Z,7.10
2023-05-15T03:15:07.704Z,7.10
2023-05-15T03:19:29.577Z,7.10
2023-05-15T03:23:51.355Z,7.10
2023-05-15T03:28:13.562Z,7.10
2023-05-15T03:32:35.727Z,7.10
2023-05-15T03:36:58.376Z,7.30
2023-05-15T03:41:21.518Z,7.40
2023-05-15T03:45:43.304Z,7.60
2023-05-15T03:50:06.738Z,7.70
2023-05-15T03:54:28.973Z,7.80
2023-05-15T03:58:50.694Z,7.90
2023-05-15T04:03:13.087Z,8.00
2023-05-15T04:07:37.012Z,8.10
2023-05-15T04:11:58.757Z,8.20
2023-05-15T04:16:20.901Z,8.20
2023-05-15T04:20:42.921Z,8.40
2023-05-15T04:25:05.179Z,8.50
2023-05-15T04:29:26.872Z,8.80
2023-05-15T04:33:49.340Z,9.10
2023-05-15T04:38:13.374Z,9.50
2023-05-15T04:42:38.324Z,9.90
2023-05-15T04:47:01.316Z,10.30
2023-05-15T04:51:23.468Z,10.70
2023-05-15T04:55:45.449Z,11.20
2023-05-15T05:00:12.433Z,11.60
2023-05-15T05:04:34.798Z,12.10
2023-05-15T05:08:56.736Z,13.00
2023-05-15T05:13:18.907Z,15.80
2023-05-15T05:17:41.112Z,19.60
2023-05-15T05:22:05.604Z,23.20
2023-05-15T05:26:28.118Z,26.00
2023-05-15T05:30:50.523Z,27.00
2023-05-15T05:35:12.618Z,28.40
2023-05-15T05:39:34.959Z,29.20
2023-05-15T05:43:56.737Z,30.50
2023-05-15T05:48:18.796Z,31.60
2023-05-15T05:52:40.773Z,32.10
2023-05-15T05:57:03.054Z,32.90
2023-05-15T06:01:25.215Z,33.20
2023-05-15T06:05:47.696Z,31.10
2023-05-15T06:10:10.180Z,31.20
2023-05-15T06:14:32.406Z,32.90
2023-05-15T06:18:54.537Z,34.70
2023-05-15T06:23:16.363Z,36.30
2023-05-15T06:27:38.529Z,36.40
2023-05-15T06:32:00.694Z,35.40
2023-05-15T06:36:22.716Z,33.40
2023-05-15T06:40:44.787Z,32.80
2023-05-15T06:45:07.493Z,32.20
2023-05-15T06:49:29.419Z,31.90
2023-05-15T06:53:51.365Z,32.10
2023-05-15T06:58:13.208Z,32.40
2023-05-15T07:02:35.334Z,32.30
2023-05-15T07:06:58.089Z,31.50
2023-05-15T07:11:19.943Z,31.00
2023-05-15T07:15:42.142Z,30.80
2023-05-15T07:20:06.263Z,31.50
2023-05-15T07:24:28.277Z,32.30
2023-05-15T07:28:50.416Z,32.80
2023-05-15T07:33:12.578Z,33.10
2023-05-15T07:37:34.608Z,33.40
2023-05-15T07:41:56.689Z,33.60
2023-05-15T07:46:18.928Z,34.30
2023-05-15T07:50:41.048Z,35.30
2023-05-15T07:55:03.857Z,37.60
2023-05-15T07:59:26.036Z,39.40
2023-05-15T08:03:48.259Z,40.70
2023-05-15T08:08:10.341Z,40.50
2023-05-15T08:12:32.275Z,40.00
2023-05-15T08:16:54.350Z,39.50
2023-05-15T08:21:16.515Z,40.60
2023-05-15T08:25:38.483Z,41.80
2023-05-15T08:30:00.637Z,42.50
2023-05-15T08:34:22.834Z,43.10
2023-05-15T08:38:44.723Z,39.90
2023-05-15T08:43:18.426Z,38.60
2023-05-15T08:47:43.011Z,35.10
2023-05-15T08:52:06.103Z,33.10
2023-05-15T08:56:28.657Z,32.80
2023-05-15T09:00:51.256Z,32.00
2023-05-15T09:05:13.396Z,31.90
2023-05-15T09:09:36.155Z,32.30
2023-05-15T09:14:00.072Z,33.10
2023-05-15T09:18:22.459Z,32.90
2023-05-15T09:22:44.626Z,33.30
2023-05-15T09:27:11.508Z,31.80
2023-05-15T09:31:34.277Z,29.70
2023-05-15T09:35:56.599Z,28.40
2023-05-15T09:40:19.664Z,27.90
2023-05-15T09:44:43.797Z,30.40
2023-05-15T09:49:06.046Z,34.20
2023-05-15T09:53:29.315Z,35.10
2023-05-15T09:58:18.103Z,34.10
2023-05-15T10:02:41.757Z,31.30
2023-05-15T10:07:03.730Z,28.70
2023-05-15T10:11:27.429Z,26.30
2023-05-15T10:15:49.992Z,24.90
2023-05-15T10:20:13.756Z,24.00
2023-05-15T10:24:36.449Z,22.90
2023-05-15T10:28:58.641Z,22.40
2023-05-15T10:33:21.838Z,22.20
2023-05-15T10:37:47.571Z,22.00
2023-05-15T10:42:10.419Z,21.70
2023-05-15T10:46:35.782Z,21.70
2023-05-15T10:51:01.699Z,22.30
2023-05-15T10:55:24.237Z,23.20
2023-05-15T10:59:46.179Z,24.00
2023-05-15T11:04:16.486Z,25.30
2023-05-15T11:08:41.621Z,26.40
2023-05-15T11:13:04.677Z,26.90
2023-05-15T11:17:27.054Z,26.80
2023-05-15T11:22:01.619Z,26.70
2023-05-15T11:26:34.069Z,26.20
2023-05-15T11:31:06.208Z,25.90
2023-05-15T11:35:58.266Z,26.30
2023-05-15T11:40:32.266Z,26.50
2023-05-15T11:44:54.256Z,26.10
2023-05-15T11:49:19.557Z,25.60
2023-05-15T11:53:43.196Z,25.50
2023-05-15T11:58:06.873Z,25.20
2023-05-15T12:02:29.088Z,25.00
2023-05-15T12:06:51.780Z,24.70
2023-05-15T12:11:14.060Z,24.30
2023-05-15T12:15:43.811Z,23.80
2023-05-15T12:20:17.212Z,23.30
2023-05-15T12:24:40.044Z,22.60
2023-05-15T12:29:02.196Z,22.20
2023-05-15T12:33:25.064Z,22.20
2023-05-15T12:37:47.203Z,22.00
2023-05-15T12:42:09.361Z,21.60
2023-05-15T12:46:32.726Z,21.50
2023-05-15T12:50:55.026Z,21.70
2023-05-15T12:55:24.918Z,22.10
2023-05-15T12:59:47.292Z,22.30
2023-05-15T13:04:10.065Z,22.20
2023-05-15T13:08:32.412Z,21.80
2023-05-15T13:12:56.005Z,21.90
2023-05-15T13:17:18.110Z,22.10
2023-05-15T13:21:40.333Z,22.60
2023-05-15T13:26:02.395Z,22.90
2023-05-15T13:30:24.675Z,22.80
2023-05-15T13:34:46.915Z,22.80
2023-05-15T13:39:09.602Z,22.70
2023-05-15T13:43:31.527Z,22.60
2023-05-15T13:47:55.327Z,22.40
2023-05-15T13:52:17.382Z,22.20
2023-05-15T13:56:39.639Z,21.80
2023-05-15T14:01:07.104Z,20.70
2023-05-15T14:05:29.250Z,20.00
2023-05-15T14:09:52.075Z,19.80
2023-05-15T14:14:14.233Z,19.80
2023-05-15T14:18:36.546Z,20.00
2023-05-15T14:22:58.514Z,20.30
2023-05-15T14:27:21.055Z,20.80
2023-05-15T14:31:43.457Z,21.10
2023-05-15T14:36:05.956Z,21.20
2023-05-15T14:40:28.322Z,21.10
2023-05-15T14:44:50.985Z,21.10
2023-05-15T14:49:12.980Z,21.10
2023-05-15T14:53:34.937Z,21.20
2023-05-15T14:57:58.744Z,21.00
2023-05-15T15:02:20.875Z,20.80
2023-05-15T15:06:44.296Z,20.60
2023-05-15T15:11:07.134Z,20.30
2023-05-15T15:15:33.796Z,20.20
2023-05-15T15:19:55.918Z,20.20
2023-05-15T15:24:18.298Z,20.10
2023-05-15T15:28:40.563Z,19.90
2023-05-15T15:33:02.741Z,19.70
2023-05-15T15:37:25.295Z,19.30
2023-05-15T15:41:47.616Z,18.90
2023-05-15T15:46:09.739Z,18.70
2023-05-15T15:50:31.923Z,18.60
2023-05-15T15:54:54.345Z,18.60
2023-05-15T15:59:16.785Z,18.50
2023-05-15T16:03:38.818Z,18.30
2023-05-15T16:08:01.084Z,18.20
2023-05-15T16:12:23.419Z,18.30
2023-05-15T16:16:45.628Z,18.50
2023-05-15T16:21:07.522Z,18.80
2023-05-15T16:25:29.617Z,18.90
2023-05-15T16:29:51.838Z,18.90
2023-05-15T16:34:14.272Z,18.70
2023-05-15T16:38:36.308Z,18.70
2023-05-15T16:42:58.208Z,18.70
2023-05-15T16:47:20.021Z,18.70
2023-05-15T16:51:42.208Z,18.60
2023-05-15T16:56:04.658Z,18.50
2023-05-15T17:00:27.448Z,18.20
2023-05-15T17:04:49.885Z,17.90
2023-05-15T17:09:12.087Z,17.70
2023-05-15T17:13:34.079Z,17.70
2023-05-15T17:17:56.061Z,17.70
2023-05-15T17:22:18.079Z,17.70
2023-05-15T17:26:40.350Z,17.60
2023-05-15T17:31:10.459Z,17.60
2023-05-15T17:35:33.385Z,17.70
2023-05-15T17:39:56.174Z,17.60
2023-05-15T17:44:18.457Z,17.40
2023-05-15T17:48:40.623Z,17.00
2023-05-15T17:53:02.436Z,16.60
2023-05-15T17:57:25.129Z,16.20
2023-05-15T18:01:47.509Z,15.90
2023-05-15T18:06:11.053Z,15.60
2023-05-15T18:10:33.082Z,15.40
2023-05-15T18:14:55.623Z,15.30
2023-05-15T18:19:18.315Z,15.30
2023-05-15T18:23:40.254Z,15.30
2023-05-15T18:28:03.949Z,15.20
2023-05-15T18:32:26.118Z,15.10
2023-05-15T18:36:52.092Z,14.90
2023-05-15T18:41:14.078Z,14.70
2023-05-15T18:45:36.118Z,14.50
2023-05-15T18:49:57.935Z,14.40
2023-05-15T18:54:20.138Z,14.30
2023-05-15T18:58:43.518Z,14.40
2023-05-15T19:03:06.348Z,14.50
2023-05-15T19:07:28.941Z,14.50
2023-05-15T19:11:52.728Z,14.60
2023-05-15T19:16:14.906Z,14.70
2023-05-15T19:20:36.814Z,14.70
2023-05-15T19:24:59.154Z,14.70
2023-05-15T19:29:21.170Z,14.70
2023-05-15T19:33:43.889Z,14.70
2023-05-15T19:38:05.949Z,14.70
2023-05-15T19:42:28.148Z,14.80
2023-05-15T19:46:51.028Z,14.90
2023-05-15T19:51:13.483Z,15.00
2023-05-15T19:55:36.166Z,15.00
2023-05-15T19:59:58.293Z,14.90
2023-05-15T20:04:21.153Z,14.80
2023-05-15T20:08:43.500Z,14.70
2023-05-15T20:13:06.180Z,14.60
2023-05-15T20:17:28.581Z,14.40
2023-05-15T20:21:50.977Z,14.20
2023-05-15T20:26:12.749Z,13.90
2023-05-15T20:30:34.800Z,13.60
2023-05-15T20:34:57.015Z,13.40
2023-05-15T20:39:22.273Z,13.30
2023-05-15T20:43:44.453Z,13.10
2023-05-15T20:48:08.847Z,13.00
2023-05-15T20:52:31.702Z,12.90
2023-05-15T20:56:53.908Z,12.70
2023-05-15T21:01:16.322Z,12.60
2023-05-15T21:05:39.060Z,12.40
2023-05-15T21:10:04.092Z,12.50
2023-05-15T21:14:27.597Z,12.70
2023-05-15T21:18:49.801Z,12.70
2023-05-15T21:23:12.010Z,12.70
2023-05-15T21:27:34.263Z,12.60
2023-05-15T21:31:56.328Z,12.50
2023-05-15T21:36:18.416Z,12.40
2023-05-15T21:40:41.072Z,12.30
2023-05-15T21:45:04.811Z,12.30
2023-05-15T21:49:27.998Z,12.10
2023-05-15T21:53:50.032Z,11.90
2023-05-15T21:58:11.936Z,11.70
2023-05-15T22:02:34.356Z,11.50
2023-05-15T22:06:56.289Z,11.40
2023-05-15T22:11:18.517Z,11.30
2023-05-15T22:15:40.658Z,11.40
2023-05-15T22:20:13.591Z,11.30
2023-05-15T22:24:35.876Z,11.30
2023-05-15T22:28:57.916Z,11.20
2023-05-15T22:33:24.654Z,11.10
2023-05-15T22:37:51.771Z,11.00
2023-05-15T22:42:14.189Z,10.90
2023-05-15T22:46:36.063Z,10.70
2023-05-15T22:50:58.098Z,10.50
2023-05-15T22:55:20.170Z,10.40
2023-05-15T22:59:42.451Z,10.30
2023-05-15T23:04:06.061Z,10.10
2023-05-15T23:08:41.260Z,10.00
2023-05-15T23:13:04.957Z,10.00
2023-05-15T23:17:37.538Z,10.00
2023-05-15T23:21:59.530Z,9.90
2023-05-15T23:26:33.542Z,9.90
2023-05-15T23:31:00.077Z,9.90
2023-05-15T23:35:23.349Z,9.90
2023-05-15T23:39:45.380Z,9.70
2023-05-15T23:44:11.057Z,9.60
2023-05-15T23:48:33.917Z,9.50
2023-05-15T23:52:55.901Z,9.50
2023-05-15T23:57:18.125Z,9.40
